sensor_id;sensor_type;location;lat;lon;timestamp;P1;durP1;ratioP1;P2;durP2;ratioP2
35552;SDS011;21656;46.054;13.614;2022-12-22T07:00:03;34.33;;;19.35;;
35552;SDS011;21656;46.054;13.614;2022-12-22T07:02:29;35.42;;;19.80;;
35552;SDS011;21656;46.054;13.614;2022-12-22T07:04:55;33.50;;;18.33;;
35552;SDS011;21656;46.054;13.614;2022-12-22T07:07:21;37.25;;;20.67;;
35552;SDS011;21656;46.054;13.614;2022-12-22T07:09:46;34.05;;;18.67;;
35552;SDS011;21656;46.054;13.614;2022-12-22T07:12:12;48.88;;;25.33;;
35552;SDS011;21656;46.054;13.614;2022-12-22T07:14:37;56.38;;;24.92;;
35552;SDS011;21656;46.054;13.614;2022-12-22T07:17:02;52.33;;;26.52;;
35552;SDS011;21656;46.054;13.614;2022-12-22T07:19:28;44.20;;;22.00;;
35552;SDS011;21656;46.054;13.614;2022-12-22T07:21:53;35.67;;;19.33;;
35552;SDS011;21656;46.054;13.614;2022-12-22T07:24:18;34.97;;;19.63;;
35552;SDS011;21656;46.054;13.614;2022-12-22T07:26:48;37.60;;;20.42;;
35552;SDS011;21656;46.054;13.614;2022-12-22T07:29:14;35.50;;;18.15;;
35552;SDS011;21656;46.054;13.614;2022-12-22T07:31:39;31.90;;;18.35;;
35552;SDS011;21656;46.054;13.614;2022-12-22T07:34:05;40.63;;;19.48;;
35552;SDS011;21656;46.054;13.614;2022-12-22T07:36:30;35.63;;;19.92;;
35552;SDS011;21656;46.054;13.614;2022-12-22T07:38:55;37.95;;;21.10;;
35552;SDS011;21656;46.054;13.614;2022-12-22T07:41:21;35.20;;;20.48;;
35552;SDS011;21656;46.054;13.614;2022-12-22T07:44:05;38.22;;;20.00;;
35552;SDS011;21656;46.054;13.614;2022-12-22T07:46:32;35.78;;;20.45;;
35552;SDS011;21656;46.054;13.614;2022-12-22T07:48:59;38.28;;;19.58;;
35552;SDS011;21656;46.054;13.614;2022-12-22T07:51:42;42.35;;;24.63;;
35552;SDS011;21656;46.054;13.614;2022-12-22T07:54:08;53.15;;;29.73;;
35552;SDS011;21656;46.054;13.614;2022-12-22T07:56:36;59.47;;;31.90;;
35552;SDS011;21656;46.054;13.614;2022-12-22T07:59:02;56.15;;;31.35;;
35552;SDS011;21656;46.054;13.614;2022-12-22T08:01:27;55.75;;;28.90;;
35552;SDS011;21656;46.054;13.614;2022-12-22T08:03:53;52.35;;;27.33;;
35552;SDS011;21656;46.054;13.614;2022-12-22T08:06:18;51.90;;;27.15;;
35552;SDS011;21656;46.054;13.614;2022-12-22T08:08:44;46.28;;;25.77;;
35552;SDS011;21656;46.054;13.614;2022-12-22T08:11:10;44.20;;;23.63;;
35552;SDS011;21656;46.054;13.614;2022-12-22T08:13:35;49.20;;;25.15;;
35552;SDS011;21656;46.054;13.614;2022-12-22T08:16:04;45.58;;;24.58;;
35552;SDS011;21656;46.054;13.614;2022-12-22T08:18:32;46.03;;;24.60;;
35552;SDS011;21656;46.054;13.614;2022-12-22T08:20:58;44.72;;;22.35;;
35552;SDS011;21656;46.054;13.614;2022-12-22T08:23:23;37.58;;;21.02;;
35552;SDS011;21656;46.054;13.614;2022-12-22T08:25:54;38.40;;;20.20;;
35552;SDS011;21656;46.054;13.614;2022-12-22T08:28:33;31.95;;;17.88;;
35552;SDS011;21656;46.054;13.614;2022-12-22T08:31:05;43.03;;;21.02;;
35552;SDS011;21656;46.054;13.614;2022-12-22T08:33:31;44.08;;;20.48;;
35552;SDS011;21656;46.054;13.614;2022-12-22T08:35:56;37.22;;;21.17;;
35552;SDS011;21656;46.054;13.614;2022-12-22T08:38:23;33.22;;;19.88;;
35552;SDS011;21656;46.054;13.614;2022-12-22T08:40:48;37.60;;;22.23;;
35552;SDS011;21656;46.054;13.614;2022-12-22T08:43:14;64.78;;;33.47;;
35552;SDS011;21656;46.054;13.614;2022-12-22T08:45:42;70.25;;;32.63;;
35552;SDS011;21656;46.054;13.614;2022-12-22T08:48:08;55.85;;;29.30;;
35552;SDS011;21656;46.054;13.614;2022-12-22T08:50:34;50.75;;;27.85;;
35552;SDS011;21656;46.054;13.614;2022-12-22T08:53:03;46.47;;;23.55;;
35552;SDS011;21656;46.054;13.614;2022-12-22T08:55:30;46.45;;;24.08;;
35552;SDS011;21656;46.054;13.614;2022-12-22T08:57:56;38.45;;;23.27;;
35552;SDS011;21656;46.054;13.614;2022-12-22T09:00:21;38.35;;;22.95;;
35552;SDS011;21656;46.054;13.614;2022-12-22T09:02:47;43.55;;;22.25;;
35552;SDS011;21656;46.054;13.614;2022-12-22T09:05:12;38.05;;;21.00;;
35552;SDS011;21656;46.054;13.614;2022-12-22T09:07:38;40.83;;;20.95;;
35552;SDS011;21656;46.054;13.614;2022-12-22T09:10:05;37.47;;;21.23;;
35552;SDS011;21656;46.054;13.614;2022-12-22T09:12:31;37.42;;;20.95;;
35552;SDS011;21656;46.054;13.614;2022-12-22T09:14:57;33.85;;;20.27;;
35552;SDS011;21656;46.054;13.614;2022-12-22T09:17:23;38.53;;;20.27;;
35552;SDS011;21656;46.054;13.614;2022-12-22T09:19:48;51.38;;;24.73;;
35552;SDS011;21656;46.054;13.614;2022-12-22T09:22:13;57.85;;;29.13;;
35552;SDS011;21656;46.054;13.614;2022-12-22T09:24:39;49.13;;;28.67;;
35552;SDS011;21656;46.054;13.614;2022-12-22T09:27:04;60.00;;;32.88;;
35552;SDS011;21656;46.054;13.614;2022-12-22T09:29:30;61.33;;;34.85;;
35552;SDS011;21656;46.054;13.614;2022-12-22T09:31:56;55.97;;;32.40;;
35552;SDS011;21656;46.054;13.614;2022-12-22T09:34:21;51.60;;;28.88;;
35552;SDS011;21656;46.054;13.614;2022-12-22T09:36:48;46.22;;;26.40;;
35552;SDS011;21656;46.054;13.614;2022-12-22T09:39:13;45.97;;;26.33;;
35552;SDS011;21656;46.054;13.614;2022-12-22T09:41:52;46.92;;;24.90;;
35552;SDS011;21656;46.054;13.614;2022-12-22T09:46:54;46.90;;;27.13;;
35552;SDS011;21656;46.054;13.614;2022-12-22T09:49:22;44.22;;;25.17;;
35552;SDS011;21656;46.054;13.614;2022-12-22T09:51:50;46.13;;;25.80;;
35552;SDS011;21656;46.054;13.614;2022-12-22T09:54:18;49.17;;;26.05;;
35552;SDS011;21656;46.054;13.614;2022-12-22T09:56:44;52.45;;;27.63;;
35552;SDS011;21656;46.054;13.614;2022-12-22T09:59:11;52.90;;;28.25;;
35552;SDS011;21656;46.054;13.614;2022-12-22T10:04:16;56.90;;;30.13;;
35552;SDS011;21656;46.054;13.614;2022-12-22T10:06:50;58.03;;;31.90;;
35552;SDS011;21656;46.054;13.614;2022-12-22T10:09:19;54.15;;;31.05;;
35552;SDS011;21656;46.054;13.614;2022-12-22T10:11:53;53.55;;;30.25;;
35552;SDS011;21656;46.054;13.614;2022-12-22T10:14:36;60.28;;;29.02;;
35552;SDS011;21656;46.054;13.614;2022-12-22T10:17:13;48.75;;;27.20;;
35552;SDS011;21656;46.054;13.614;2022-12-22T10:19:42;39.70;;;24.48;;
35552;SDS011;21656;46.054;13.614;2022-12-22T10:25:21;39.05;;;22.60;;
35552;SDS011;21656;46.054;13.614;2022-12-22T10:27:50;45.63;;;23.38;;
35552;SDS011;21656;46.054;13.614;2022-12-22T10:30:21;47.85;;;24.40;;
35552;SDS011;21656;46.054;13.614;2022-12-22T10:33:03;39.75;;;21.75;;
35552;SDS011;21656;46.054;13.614;2022-12-22T10:38:14;38.72;;;21.35;;
35552;SDS011;21656;46.054;13.614;2022-12-22T10:40:44;39.00;;;20.95;;
35552;SDS011;21656;46.054;13.614;2022-12-22T10:43:20;49.50;;;21.65;;
35552;SDS011;21656;46.054;13.614;2022-12-22T10:45:48;37.30;;;22.33;;
35552;SDS011;21656;46.054;13.614;2022-12-22T10:48:15;37.80;;;22.58;;
35552;SDS011;21656;46.054;13.614;2022-12-22T10:50:47;49.30;;;23.92;;
35552;SDS011;21656;46.054;13.614;2022-12-22T10:53:14;43.55;;;22.10;;
35552;SDS011;21656;46.054;13.614;2022-12-22T10:55:39;49.63;;;23.90;;
35552;SDS011;21656;46.054;13.614;2022-12-22T11:00:45;46.78;;;25.08;;
35552;SDS011;21656;46.054;13.614;2022-12-22T11:03:29;43.83;;;23.88;;
35552;SDS011;21656;46.054;13.614;2022-12-22T11:05:55;43.08;;;23.00;;
35552;SDS011;21656;46.054;13.614;2022-12-22T11:08:21;38.42;;;21.00;;
35552;SDS011;21656;46.054;13.614;2022-12-22T11:10:53;40.83;;;22.00;;
35552;SDS011;21656;46.054;13.614;2022-12-22T11:13:43;36.08;;;20.48;;
35552;SDS011;21656;46.054;13.614;2022-12-22T11:16:31;42.10;;;21.38;;
35552;SDS011;21656;46.054;13.614;2022-12-22T11:19:16;39.42;;;20.48;;
35552;SDS011;21656;46.054;13.614;2022-12-22T11:24:42;44.38;;;24.83;;
35552;SDS011;21656;46.054;13.614;2022-12-22T11:27:16;43.90;;;24.27;;
35552;SDS011;21656;46.054;13.614;2022-12-22T11:30:15;37.60;;;22.60;;
35552;SDS011;21656;46.054;13.614;2022-12-22T11:35:29;36.88;;;20.92;;
35552;SDS011;21656;46.054;13.614;2022-12-22T11:40:57;40.33;;;20.90;;
35552;SDS011;21656;46.054;13.614;2022-12-22T11:46:27;45.10;;;21.08;;
35552;SDS011;21656;46.054;13.614;2022-12-22T11:49:04;58.15;;;29.52;;
35552;SDS011;21656;46.054;13.614;2022-12-22T11:59:48;65.70;;;31.15;;
35552;SDS011;21656;46.054;13.614;2022-12-22T12:07:36;53.83;;;27.88;;
35552;SDS011;21656;46.054;13.614;2022-12-22T12:10:14;47.42;;;26.33;;
35552;SDS011;21656;46.054;13.614;2022-12-22T12:15:19;54.78;;;26.48;;
35552;SDS011;21656;46.054;13.614;2022-12-22T12:26:51;43.50;;;23.70;;
35552;SDS011;21656;46.054;13.614;2022-12-22T12:29:40;49.88;;;26.08;;
35552;SDS011;21656;46.054;13.614;2022-12-22T12:32:17;55.40;;;27.33;;
35552;SDS011;21656;46.054;13.614;2022-12-22T12:34:49;60.28;;;30.10;;
35552;SDS011;21656;46.054;13.614;2022-12-22T12:37:24;62.95;;;30.15;;
35552;SDS011;21656;46.054;13.614;2022-12-22T12:42:32;77.05;;;35.63;;
35552;SDS011;21656;46.054;13.614;2022-12-22T12:45:08;68.40;;;36.33;;
35552;SDS011;21656;46.054;13.614;2022-12-22T12:50:53;66.43;;;34.78;;
35552;SDS011;21656;46.054;13.614;2022-12-22T12:53:20;70.85;;;34.08;;
35552;SDS011;21656;46.054;13.614;2022-12-22T12:58:33;71.63;;;34.08;;
35552;SDS011;21656;46.054;13.614;2022-12-22T13:03:42;74.15;;;37.47;;
35552;SDS011;21656;46.054;13.614;2022-12-22T13:06:09;80.13;;;39.15;;
35552;SDS011;21656;46.054;13.614;2022-12-22T13:11:33;81.75;;;42.28;;
35552;SDS011;21656;46.054;13.614;2022-12-22T13:14:00;78.25;;;39.17;;
35552;SDS011;21656;46.054;13.614;2022-12-22T13:16:27;77.35;;;38.55;;
35552;SDS011;21656;46.054;13.614;2022-12-22T13:18:58;73.15;;;35.95;;
35552;SDS011;21656;46.054;13.614;2022-12-22T13:21:28;77.82;;;39.15;;
35552;SDS011;21656;46.054;13.614;2022-12-22T13:26:21;77.88;;;40.55;;
35552;SDS011;21656;46.054;13.614;2022-12-22T13:28:49;77.97;;;38.10;;
35552;SDS011;21656;46.054;13.614;2022-12-22T13:31:21;79.13;;;38.40;;
35552;SDS011;21656;46.054;13.614;2022-12-22T13:36:25;77.15;;;38.00;;
35552;SDS011;21656;46.054;13.614;2022-12-22T13:38:58;83.50;;;39.25;;
35552;SDS011;21656;46.054;13.614;2022-12-22T13:41:25;80.35;;;38.42;;
35552;SDS011;21656;46.054;13.614;2022-12-22T13:43:52;78.38;;;38.67;;
35552;SDS011;21656;46.054;13.614;2022-12-22T13:46:22;87.20;;;40.88;;
35552;SDS011;21656;46.054;13.614;2022-12-22T13:48:49;83.00;;;37.40;;
35552;SDS011;21656;46.054;13.614;2022-12-22T13:51:22;86.53;;;39.20;;
35552;SDS011;21656;46.054;13.614;2022-12-22T13:53:55;89.15;;;39.78;;
35552;SDS011;21656;46.054;13.614;2022-12-22T13:56:25;91.43;;;41.78;;
35552;SDS011;21656;46.054;13.614;2022-12-22T14:01:24;90.78;;;41.90;;
35552;SDS011;21656;46.054;13.614;2022-12-22T14:04:02;88.82;;;40.47;;
35552;SDS011;21656;46.054;13.614;2022-12-22T14:06:32;86.65;;;40.83;;
35552;SDS011;21656;46.054;13.614;2022-12-22T14:14:27;83.75;;;40.13;;
35552;SDS011;21656;46.054;13.614;2022-12-22T14:16:56;87.13;;;41.97;;
35552;SDS011;21656;46.054;13.614;2022-12-22T14:19:24;89.07;;;40.78;;
35552;SDS011;21656;46.054;13.614;2022-12-22T14:21:54;87.95;;;41.40;;
35552;SDS011;21656;46.054;13.614;2022-12-22T14:24:26;91.65;;;43.08;;
35552;SDS011;21656;46.054;13.614;2022-12-22T14:26:55;91.55;;;41.90;;
35552;SDS011;21656;46.054;13.614;2022-12-22T14:29:21;97.78;;;42.63;;
35552;SDS011;21656;46.054;13.614;2022-12-22T14:31:55;99.30;;;44.33;;
35552;SDS011;21656;46.054;13.614;2022-12-22T14:34:30;92.25;;;43.58;;
35552;SDS011;21656;46.054;13.614;2022-12-22T14:36:56;102.45;;;45.58;;
35552;SDS011;21656;46.054;13.614;2022-12-22T14:39:25;97.63;;;46.53;;
35552;SDS011;21656;46.054;13.614;2022-12-22T14:41:56;108.03;;;47.45;;
35552;SDS011;21656;46.054;13.614;2022-12-22T14:49:30;105.32;;;47.10;;
35552;SDS011;21656;46.054;13.614;2022-12-22T14:52:00;106.30;;;50.45;;
35552;SDS011;21656;46.054;13.614;2022-12-22T14:54:31;109.50;;;52.42;;
35552;SDS011;21656;46.054;13.614;2022-12-22T14:56:59;99.80;;;48.22;;
35552;SDS011;21656;46.054;13.614;2022-12-22T14:59:28;112.57;;;54.08;;
35552;SDS011;21656;46.054;13.614;2022-12-22T15:01:59;111.15;;;53.53;;
35552;SDS011;21656;46.054;13.614;2022-12-22T15:04:26;108.70;;;53.17;;
35552;SDS011;21656;46.054;13.614;2022-12-22T15:07:01;99.82;;;49.97;;
35552;SDS011;21656;46.054;13.614;2022-12-22T15:09:28;95.68;;;48.05;;
35552;SDS011;21656;46.054;13.614;2022-12-22T15:11:56;107.60;;;49.85;;
35552;SDS011;21656;46.054;13.614;2022-12-22T15:14:29;101.25;;;48.63;;
35552;SDS011;21656;46.054;13.614;2022-12-22T15:16:56;95.00;;;46.72;;
35552;SDS011;21656;46.054;13.614;2022-12-22T15:19:27;97.95;;;46.80;;
35552;SDS011;21656;46.054;13.614;2022-12-22T15:21:55;102.53;;;48.95;;
35552;SDS011;21656;46.054;13.614;2022-12-22T15:24:20;108.93;;;50.20;;
35552;SDS011;21656;46.054;13.614;2022-12-22T15:26:46;107.47;;;50.72;;
35552;SDS011;21656;46.054;13.614;2022-12-22T15:29:12;108.55;;;50.75;;
35552;SDS011;21656;46.054;13.614;2022-12-22T15:31:38;113.68;;;53.72;;
35552;SDS011;21656;46.054;13.614;2022-12-22T15:36:50;143.18;;;65.35;;
35552;SDS011;21656;46.054;13.614;2022-12-22T15:39:16;200.35;;;89.60;;
35552;SDS011;21656;46.054;13.614;2022-12-22T15:41:44;189.57;;;85.60;;
35552;SDS011;21656;46.054;13.614;2022-12-22T15:44:10;96.47;;;44.20;;
35552;SDS011;21656;46.054;13.614;2022-12-22T15:46:36;92.78;;;41.25;;
35552;SDS011;21656;46.054;13.614;2022-12-22T15:49:04;98.00;;;45.42;;
35552;SDS011;21656;46.054;13.614;2022-12-22T15:51:37;98.45;;;45.33;;
35552;SDS011;21656;46.054;13.614;2022-12-22T15:54:03;91.03;;;44.63;;
35552;SDS011;21656;46.054;13.614;2022-12-22T15:56:29;90.90;;;42.88;;
35552;SDS011;21656;46.054;13.614;2022-12-22T15:58:57;110.57;;;45.53;;
35552;SDS011;21656;46.054;13.614;2022-12-22T16:01:23;101.13;;;47.03;;
35552;SDS011;21656;46.054;13.614;2022-12-22T16:03:48;124.05;;;53.25;;
35552;SDS011;21656;46.054;13.614;2022-12-22T16:06:14;105.30;;;51.13;;
35552;SDS011;21656;46.054;13.614;2022-12-22T16:08:42;109.88;;;58.10;;
35552;SDS011;21656;46.054;13.614;2022-12-22T16:11:17;96.13;;;46.63;;
35552;SDS011;21656;46.054;13.614;2022-12-22T16:13:43;100.03;;;47.92;;
35552;SDS011;21656;46.054;13.614;2022-12-22T16:16:09;93.05;;;45.40;;
35552;SDS011;21656;46.054;13.614;2022-12-22T16:18:35;91.03;;;44.97;;
35552;SDS011;21656;46.054;13.614;2022-12-22T16:21:03;88.65;;;43.53;;
35552;SDS011;21656;46.054;13.614;2022-12-22T16:23:32;91.72;;;46.45;;
35552;SDS011;21656;46.054;13.614;2022-12-22T16:25:59;91.22;;;44.40;;
35552;SDS011;21656;46.054;13.614;2022-12-22T16:28:25;106.35;;;51.08;;
35552;SDS011;21656;46.054;13.614;2022-12-22T16:30:51;122.50;;;52.55;;
35552;SDS011;21656;46.054;13.614;2022-12-22T16:33:16;115.72;;;52.25;;
35552;SDS011;21656;46.054;13.614;2022-12-22T16:35:43;129.85;;;57.00;;
35552;SDS011;21656;46.054;13.614;2022-12-22T16:38:08;146.52;;;66.63;;
35552;SDS011;21656;46.054;13.614;2022-12-22T16:40:44;99.40;;;47.20;;
35552;SDS011;21656;46.054;13.614;2022-12-22T16:45:52;95.65;;;44.65;;
35552;SDS011;21656;46.054;13.614;2022-12-22T16:48:19;96.53;;;46.35;;
35552;SDS011;21656;46.054;13.614;2022-12-22T16:50:51;115.38;;;53.67;;
35552;SDS011;21656;46.054;13.614;2022-12-22T16:53:16;98.50;;;48.53;;
35552;SDS011;21656;46.054;13.614;2022-12-22T16:55:42;99.28;;;49.78;;
35552;SDS011;21656;46.054;13.614;2022-12-22T16:58:10;97.15;;;50.30;;
35552;SDS011;21656;46.054;13.614;2022-12-22T17:00:36;106.43;;;48.90;;
35552;SDS011;21656;46.054;13.614;2022-12-22T17:03:12;104.20;;;50.20;;
35552;SDS011;21656;46.054;13.614;2022-12-22T17:05:59;100.35;;;47.58;;
35552;SDS011;21656;46.054;13.614;2022-12-22T17:08:28;111.40;;;52.28;;
35552;SDS011;21656;46.054;13.614;2022-12-22T17:10:58;114.55;;;53.70;;
35552;SDS011;21656;46.054;13.614;2022-12-22T17:13:25;120.97;;;57.47;;
35552;SDS011;21656;46.054;13.614;2022-12-22T17:15:51;122.78;;;61.72;;
35552;SDS011;21656;46.054;13.614;2022-12-22T17:18:20;127.53;;;60.35;;
35552;SDS011;21656;46.054;13.614;2022-12-22T17:20:52;151.00;;;71.78;;
35552;SDS011;21656;46.054;13.614;2022-12-22T17:25:54;141.25;;;65.55;;
35552;SDS011;21656;46.054;13.614;2022-12-22T17:28:20;146.75;;;66.63;;
35552;SDS011;21656;46.054;13.614;2022-12-22T17:30:45;136.38;;;63.22;;
35552;SDS011;21656;46.054;13.614;2022-12-22T17:33:14;132.82;;;62.13;;
35552;SDS011;21656;46.054;13.614;2022-12-22T17:35:41;117.95;;;59.17;;
35552;SDS011;21656;46.054;13.614;2022-12-22T17:38:17;119.85;;;59.80;;
35552;SDS011;21656;46.054;13.614;2022-12-22T17:40:46;127.40;;;61.25;;
35552;SDS011;21656;46.054;13.614;2022-12-22T17:43:13;132.90;;;61.92;;
35552;SDS011;21656;46.054;13.614;2022-12-22T17:45:39;119.25;;;62.03;;
35552;SDS011;21656;46.054;13.614;2022-12-22T17:48:05;134.25;;;61.35;;
35552;SDS011;21656;46.054;13.614;2022-12-22T17:50:31;125.22;;;60.60;;
35552;SDS011;21656;46.054;13.614;2022-12-22T17:52:57;131.80;;;62.35;;
35552;SDS011;21656;46.054;13.614;2022-12-22T17:55:24;132.30;;;62.28;;
35552;SDS011;21656;46.054;13.614;2022-12-22T17:57:51;127.90;;;61.47;;
35552;SDS011;21656;46.054;13.614;2022-12-22T18:00:25;113.00;;;55.30;;
35552;SDS011;21656;46.054;13.614;2022-12-22T18:02:53;104.38;;;55.90;;
35552;SDS011;21656;46.054;13.614;2022-12-22T18:05:19;214.93;;;103.65;;
35552;SDS011;21656;46.054;13.614;2022-12-22T18:07:46;131.32;;;62.83;;
35552;SDS011;21656;46.054;13.614;2022-12-22T18:12:50;114.18;;;55.10;;
35552;SDS011;21656;46.054;13.614;2022-12-22T18:15:16;111.07;;;52.38;;
35552;SDS011;21656;46.054;13.614;2022-12-22T18:17:43;106.25;;;52.05;;
35552;SDS011;21656;46.054;13.614;2022-12-22T18:20:15;102.50;;;49.22;;
35552;SDS011;21656;46.054;13.614;2022-12-22T18:22:42;110.25;;;50.47;;
35552;SDS011;21656;46.054;13.614;2022-12-22T18:25:20;108.05;;;50.05;;
35552;SDS011;21656;46.054;13.614;2022-12-22T18:27:48;105.75;;;49.58;;
35552;SDS011;21656;46.054;13.614;2022-12-22T18:32:47;136.95;;;57.60;;
35552;SDS011;21656;46.054;13.614;2022-12-22T18:35:13;127.82;;;57.65;;
35552;SDS011;21656;46.054;13.614;2022-12-22T18:37:40;132.32;;;55.72;;
35552;SDS011;21656;46.054;13.614;2022-12-22T18:40:51;115.72;;;52.00;;
35552;SDS011;21656;46.054;13.614;2022-12-22T18:42:56;130.73;;;59.05;;
35552;SDS011;21656;46.054;13.614;2022-12-22T18:45:24;127.30;;;58.17;;
35552;SDS011;21656;46.054;13.614;2022-12-22T18:47:52;125.03;;;58.22;;
35552;SDS011;21656;46.054;13.614;2022-12-22T18:50:19;121.75;;;56.05;;
35552;SDS011;21656;46.054;13.614;2022-12-22T18:52:52;123.57;;;55.85;;
35552;SDS011;21656;46.054;13.614;2022-12-22T18:55:23;120.38;;;55.22;;
35552;SDS011;21656;46.054;13.614;2022-12-22T18:57:51;129.93;;;63.42;;
35552;SDS011;21656;46.054;13.614;2022-12-22T19:00:17;135.65;;;64.07;;
35552;SDS011;21656;46.054;13.614;2022-12-22T19:02:46;124.25;;;59.78;;
35552;SDS011;21656;46.054;13.614;2022-12-22T19:05:13;123.70;;;59.13;;
35552;SDS011;21656;46.054;13.614;2022-12-22T19:07:47;119.80;;;57.03;;
35552;SDS011;21656;46.054;13.614;2022-12-22T19:10:15;125.70;;;60.17;;
35552;SDS011;21656;46.054;13.614;2022-12-22T19:12:43;119.88;;;57.03;;
35552;SDS011;21656;46.054;13.614;2022-12-22T19:15:16;104.03;;;50.78;;
35552;SDS011;21656;46.054;13.614;2022-12-22T19:17:45;103.72;;;46.50;;
35552;SDS011;21656;46.054;13.614;2022-12-22T19:20:13;94.07;;;45.15;;
35552;SDS011;21656;46.054;13.614;2022-12-22T19:22:41;94.05;;;45.88;;
35552;SDS011;21656;46.054;13.614;2022-12-22T19:25:08;107.82;;;50.45;;
35552;SDS011;21656;46.054;13.614;2022-12-22T19:27:37;104.30;;;50.33;;
35552;SDS011;21656;46.054;13.614;2022-12-22T19:30:03;103.05;;;48.55;;
35552;SDS011;21656;46.054;13.614;2022-12-22T19:32:29;108.72;;;48.00;;
35552;SDS011;21656;46.054;13.614;2022-12-22T19:34:57;86.82;;;40.33;;
35552;SDS011;21656;46.054;13.614;2022-12-22T19:37:23;86.35;;;39.40;;
35552;SDS011;21656;46.054;13.614;2022-12-22T19:39:48;78.78;;;37.92;;
35552;SDS011;21656;46.054;13.614;2022-12-22T19:42:14;82.97;;;40.58;;
35552;SDS011;21656;46.054;13.614;2022-12-22T19:44:43;89.50;;;39.55;;
35552;SDS011;21656;46.054;13.614;2022-12-22T19:47:15;92.50;;;42.22;;
35552;SDS011;21656;46.054;13.614;2022-12-22T19:49:43;86.18;;;41.20;;
35552;SDS011;21656;46.054;13.614;2022-12-22T19:52:08;88.35;;;43.53;;
35552;SDS011;21656;46.054;13.614;2022-12-22T19:54:35;85.05;;;41.15;;
35552;SDS011;21656;46.054;13.614;2022-12-22T19:57:01;93.38;;;44.10;;
35552;SDS011;21656;46.054;13.614;2022-12-22T20:02:00;97.60;;;45.03;;
35552;SDS011;21656;46.054;13.614;2022-12-22T20:04:26;87.07;;;40.40;;
35552;SDS011;21656;46.054;13.614;2022-12-22T20:06:52;94.15;;;43.47;;
35552;SDS011;21656;46.054;13.614;2022-12-22T20:09:17;109.00;;;50.55;;
35552;SDS011;21656;46.054;13.614;2022-12-22T20:11:43;114.20;;;54.33;;
35552;SDS011;21656;46.054;13.614;2022-12-22T20:14:15;114.78;;;55.65;;
35552;SDS011;21656;46.054;13.614;2022-12-22T20:16:42;114.20;;;54.97;;
35552;SDS011;21656;46.054;13.614;2022-12-22T20:19:13;115.50;;;54.63;;
35552;SDS011;21656;46.054;13.614;2022-12-22T20:21:39;104.82;;;53.00;;
35552;SDS011;21656;46.054;13.614;2022-12-22T20:24:05;109.45;;;53.53;;
35552;SDS011;21656;46.054;13.614;2022-12-22T20:26:31;90.78;;;47.20;;
35552;SDS011;21656;46.054;13.614;2022-12-22T20:28:57;99.13;;;48.83;;
35552;SDS011;21656;46.054;13.614;2022-12-22T20:31:22;109.78;;;51.08;;
35552;SDS011;21656;46.054;13.614;2022-12-22T20:33:49;95.75;;;46.15;;
35552;SDS011;21656;46.054;13.614;2022-12-22T20:36:33;85.70;;;42.53;;
35552;SDS011;21656;46.054;13.614;2022-12-22T20:38:59;90.82;;;44.08;;
35552;SDS011;21656;46.054;13.614;2022-12-22T20:41:26;106.07;;;50.00;;
35552;SDS011;21656;46.054;13.614;2022-12-22T20:43:51;90.72;;;45.72;;
35552;SDS011;21656;46.054;13.614;2022-12-22T20:51:17;93.35;;;43.92;;
35552;SDS011;21656;46.054;13.614;2022-12-22T20:53:43;89.75;;;42.42;;
35552;SDS011;21656;46.054;13.614;2022-12-22T20:58:47;82.35;;;40.20;;
35552;SDS011;21656;46.054;13.614;2022-12-22T21:01:13;88.00;;;41.72;;
35552;SDS011;21656;46.054;13.614;2022-12-22T21:03:38;78.35;;;40.13;;
35552;SDS011;21656;46.054;13.614;2022-12-22T21:08:57;95.15;;;43.47;;
35552;SDS011;21656;46.054;13.614;2022-12-22T21:11:24;87.97;;;44.95;;
35552;SDS011;21656;46.054;13.614;2022-12-22T21:13:50;89.57;;;45.88;;
35552;SDS011;21656;46.054;13.614;2022-12-22T21:16:17;101.07;;;46.17;;
35552;SDS011;21656;46.054;13.614;2022-12-22T21:18:48;96.22;;;49.63;;
35552;SDS011;21656;46.054;13.614;2022-12-22T21:21:14;100.80;;;50.22;;
35552;SDS011;21656;46.054;13.614;2022-12-22T21:23:40;94.47;;;49.33;;
35552;SDS011;21656;46.054;13.614;2022-12-22T21:28:57;100.15;;;47.47;;
35552;SDS011;21656;46.054;13.614;2022-12-22T21:31:23;93.95;;;47.25;;
35552;SDS011;21656;46.054;13.614;2022-12-22T21:33:48;91.28;;;43.65;;
